Terminal Aerodrome Forecast
Issued by NWS

Home | Current Version | Previous Version | Text Only | Print | Product List | Glossary On
Versions: 1 2 3 4 5 6 7 8 9 10 11 12 13 14 15 16 17
000
FTUS46 KSGX 251720
TAFSNA
TAF
KSNA 251720Z 2518/2618 VRB04KT P6SM SKC
     FM251900 22010KT P6SM SKC
     FM260300 20005KT P6SM SCT015
     FM260600 VRB04KT P6SM OVC015
     FM261700 VRB04KT P6SM SCT020=

USA.gov is the U.S. government's official web portal to all federal, state and local government web resources and services.